Time;durP1;ratioP1;P1;durP2;ratioP2;P2;SDS_P1;SDS_P2;PMS_P1;PMS_P2;Temp;Humidity;BMP_temperature;BMP_pressure;BME280_temperature;BME280_humidity;BME280_pressure;Samples;Min_cycle;Max_cycle;Signal;HPM_P1;HPM_P2
2023/03/05 00:00:08;;;;;;;14.25;3.50;;;6.90;93.10;;;;;;5076674;28;20187;-74
2023/03/05 00:02:33;;;;;;;16.63;3.00;;;6.90;92.80;;;;;;5074114;28;20028;-74
2023/03/05 00:04:59;;;;;;;13.20;2.95;;;6.80;92.80;;;;;;5071133;28;20034;-73
2023/03/05 00:07:25;;;;;;;11.80;3.55;;;6.90;92.90;;;;;;5082976;28;20487;-73
2023/03/05 00:09:50;;;;;;;8.90;3.10;;;6.80;92.90;;;;;;5081849;28;20044;-74
2023/03/05 00:12:16;;;;;;;14.10;3.40;;;6.80;92.90;;;;;;5074554;28;20444;-74
2023/03/05 00:14:41;;;;;;;19.08;3.53;;;6.80;92.90;;;;;;5083313;28;20027;-75
2023/03/05 00:17:07;;;;;;;18.42;3.85;;;6.80;92.80;;;;;;5081173;28;20025;-75
2023/03/05 00:19:33;;;;;;;15.02;3.28;;;6.90;92.80;;;;;;5081439;28;20028;-74
2023/03/05 00:21:58;;;;;;;18.38;3.67;;;6.80;92.80;;;;;;5076463;28;20024;-75
2023/03/05 00:24:24;;;;;;;12.07;3.78;;;6.80;92.90;;;;;;5078605;28;20020;-73
2023/03/05 00:26:49;;;;;;;20.40;4.65;;;6.80;92.90;;;;;;5076559;28;20484;-76
2023/03/05 00:29:17;;;;;;;15.52;3.08;;;6.80;92.90;;;;;;5076013;28;20591;-74
2023/03/05 00:31:44;;;;;;;12.27;2.75;;;6.80;93.00;;;;;;5079320;28;20020;-74
2023/03/05 00:34:15;;;;;;;18.48;3.60;;;6.80;93.00;;;;;;5075720;28;20153;-74
2023/03/05 00:36:42;;;;;;;21.00;3.85;;;6.80;93.00;;;;;;5086288;28;20024;-75
2023/03/05 00:39:09;;;;;;;15.38;4.05;;;6.80;93.00;;;;;;5076722;28;20155;-73
2023/03/05 00:41:34;;;;;;;14.02;3.08;;;6.80;93.00;;;;;;5072414;28;20121;-73
2023/03/05 00:44:00;;;;;;;19.55;3.78;;;6.80;93.10;;;;;;5082858;28;20032;-73
2023/03/05 00:46:26;;;;;;;14.35;3.45;;;6.80;93.10;;;;;;5085682;28;20024;-72
2023/03/05 00:48:52;;;;;;;18.05;3.60;;;6.80;93.10;;;;;;5078795;28;20101;-73
2023/03/05 00:51:18;;;;;;;13.27;4.00;;;6.80;93.00;;;;;;5072771;28;20027;-73
2023/03/05 00:53:44;;;;;;;16.27;3.92;;;6.90;93.00;;;;;;5073710;28;20036;-74
2023/03/05 00:56:10;;;;;;;14.32;3.50;;;6.90;93.00;;;;;;5081338;28;20047;-73
2023/03/05 00:58:35;;;;;;;13.77;3.47;;;6.90;92.90;;;;;;5083946;28;20034;-73
2023/03/05 01:01:03;;;;;;;13.05;2.30;;;6.90;93.00;;;;;;5072845;28;20038;-74
2023/03/05 01:03:30;;;;;;;20.13;3.33;;;6.90;93.10;;;;;;5073858;28;20107;-73
2023/03/05 01:05:56;;;;;;;11.48;3.20;;;6.90;93.10;;;;;;5069772;28;20025;-73
2023/03/05 01:08:21;;;;;;;17.08;3.83;;;7.00;93.20;;;;;;5073761;28;20470;-73
2023/03/05 01:10:47;;;;;;;16.05;3.35;;;7.00;93.30;;;;;;5081994;28;20056;-74
2023/03/05 01:13:13;;;;;;;14.27;2.83;;;7.10;93.30;;;;;;5074422;28;20055;-75
2023/03/05 01:15:39;;;;;;;18.70;3.58;;;7.10;93.30;;;;;;5085659;28;20127;-73
2023/03/05 01:18:05;;;;;;;10.75;3.13;;;7.10;93.20;;;;;;5088645;28;20107;-74
2023/03/05 01:20:30;;;;;;;16.80;3.30;;;7.20;93.20;;;;;;5078383;28;20558;-73
2023/03/05 01:22:58;;;;;;;16.50;3.92;;;7.20;93.20;;;;;;5075678;28;20676;-73
2023/03/05 01:25:24;;;;;;;11.85;3.05;;;7.20;93.00;;;;;;5089210;28;20467;-72
2023/03/05 01:27:51;;;;;;;13.60;3.40;;;7.10;92.90;;;;;;5072830;28;20020;-73
2023/03/05 01:30:17;;;;;;;14.52;2.85;;;7.10;92.80;;;;;;5086516;28;20116;-73
2023/03/05 01:32:42;;;;;;;14.52;3.47;;;7.10;92.90;;;;;;5073351;28;20437;-73
2023/03/05 01:35:15;;;;;;;11.80;2.95;;;7.10;93.00;;;;;;5079136;28;20034;-75
2023/03/05 01:37:40;;;;;;;11.68;3.17;;;7.10;93.00;;;;;;5071292;28;20653;-74
2023/03/05 01:40:06;;;;;;;21.40;4.10;;;7.10;92.90;;;;;;5084276;28;20033;-74
2023/03/05 01:42:32;;;;;;;12.02;3.70;;;7.00;92.80;;;;;;5084908;28;20026;-74
2023/03/05 01:45:06;;;;;;;15.73;4.07;;;7.00;92.80;;;;;;5073959;28;20475;-74
2023/03/05 01:47:32;;;;;;;13.65;3.25;;;7.00;92.80;;;;;;5082793;28;20062;-74
2023/03/05 01:49:58;;;;;;;18.10;3.78;;;7.00;92.90;;;;;;5076655;28;20056;-73
2023/03/05 01:52:26;;;;;;;12.25;3.28;;;7.00;92.90;;;;;;5075047;28;20390;-73
2023/03/05 01:55:01;;;;;;;14.38;3.63;;;7.00;93.00;;;;;;5084771;28;20020;-74
2023/03/05 01:57:35;;;;;;;15.60;3.63;;;7.00;92.90;;;;;;5081509;28;20029;-74
2023/03/05 02:00:06;;;;;;;19.67;6.13;;;7.00;92.90;;;;;;5087168;28;20146;-75
2023/03/05 02:02:32;;;;;;;30.90;9.50;;;7.00;92.90;;;;;;5077304;28;20016;-75
2023/03/05 02:05:11;;;;;;;25.33;8.32;;;7.00;92.80;;;;;;5078175;28;20023;-76
2023/03/05 02:07:39;;;;;;;19.67;6.07;;;6.90;92.70;;;;;;5085879;28;20052;-74
2023/03/05 02:10:35;;;;;;;14.77;4.18;;;6.80;92.70;;;;;;5081732;28;20064;-73
2023/03/05 02:13:04;;;;;;;15.27;5.72;;;6.80;92.80;;;;;;5084948;28;20032;-74
2023/03/05 02:15:30;;;;;;;17.08;3.67;;;6.80;92.70;;;;;;5081556;28;20835;-74
2023/03/05 02:17:56;;;;;;;17.20;3.70;;;6.80;92.80;;;;;;5072245;28;20024;-74
2023/03/05 02:20:26;;;;;;;16.02;3.45;;;6.70;92.70;;;;;;5082242;28;20086;-73
2023/03/05 02:22:51;;;;;;;13.93;4.30;;;6.70;92.70;;;;;;5074984;28;20032;-74
2023/03/05 02:25:23;;;;;;;16.67;5.97;;;6.70;92.80;;;;;;5081702;28;20020;-75
2023/03/05 02:28:15;;;;;;;20.50;5.38;;;6.70;92.80;;;;;;5078723;28;20035;-73
2023/03/05 02:30:41;;;;;;;12.50;5.00;;;6.70;92.80;;;;;;5069807;28;20052;-74
2023/03/05 02:33:07;;;;;;;23.48;6.15;;;6.70;92.70;;;;;;5088396;28;20054;-73
2023/03/05 02:35:32;;;;;;;13.45;3.50;;;6.70;92.80;;;;;;5089197;28;20470;-74
2023/03/05 02:37:58;;;;;;;15.15;3.40;;;6.60;93.00;;;;;;5089350;28;20020;-75
2023/03/05 02:40:24;;;;;;;12.60;3.03;;;6.70;93.00;;;;;;5088207;28;20056;-75
2023/03/05 02:42:49;;;;;;;19.90;7.38;;;6.70;92.90;;;;;;5083076;28;20027;-74
2023/03/05 02:45:15;;;;;;;23.08;8.57;;;6.70;92.80;;;;;;5071913;28;20021;-74
2023/03/05 02:47:41;;;;;;;28.80;7.32;;;6.70;93.10;;;;;;5075108;28;20021;-73
2023/03/05 02:50:09;;;;;;;17.50;5.72;;;6.70;92.80;;;;;;5071477;28;20387;-75
2023/03/05 02:52:34;;;;;;;25.00;10.57;;;6.70;92.80;;;;;;5076772;28;20024;-74
2023/03/05 02:55:00;;;;;;;14.63;4.70;;;6.70;92.80;;;;;;5085465;28;20093;-74
2023/03/05 02:57:26;;;;;;;14.82;4.18;;;6.70;92.90;;;;;;5088944;28;20440;-74
2023/03/05 02:59:52;;;;;;;14.50;3.53;;;6.80;92.90;;;;;;5078331;28;20032;-74
2023/03/05 03:02:18;;;;;;;21.27;5.43;;;6.80;92.90;;;;;;5073345;28;20023;-75
2023/03/05 03:04:44;;;;;;;24.17;5.85;;;6.80;92.80;;;;;;5087425;28;20036;-74
2023/03/05 03:07:11;;;;;;;16.67;4.32;;;6.80;92.80;;;;;;5079952;28;20047;-73
2023/03/05 03:09:37;;;;;;;20.48;5.40;;;6.80;92.80;;;;;;5083411;28;20028;-75
2023/03/05 03:12:04;;;;;;;21.67;5.50;;;6.80;92.70;;;;;;5073446;28;20028;-74
2023/03/05 03:14:37;;;;;;;25.05;8.10;;;6.70;92.60;;;;;;5086325;28;20079;-74
2023/03/05 03:17:08;;;;;;;31.52;9.80;;;6.70;92.60;;;;;;5072294;28;20278;-75
2023/03/05 03:19:35;;;;;;;21.77;5.85;;;6.70;92.70;;;;;;5079792;28;20028;-74
2023/03/05 03:22:01;;;;;;;18.35;6.60;;;6.70;92.70;;;;;;5083518;28;20020;-74
2023/03/05 03:24:28;;;;;;;14.77;5.82;;;6.70;92.80;;;;;;5080243;28;20550;-74
2023/03/05 03:26:54;;;;;;;16.88;6.38;;;6.60;92.70;;;;;;5080833;28;20475;-73
2023/03/05 03:29:19;;;;;;;16.83;4.50;;;6.50;92.80;;;;;;5082939;28;20074;-74
2023/03/05 03:31:45;;;;;;;11.43;3.67;;;6.50;92.90;;;;;;5082132;28;20112;-73
2023/03/05 03:34:12;;;;;;;19.58;6.97;;;6.50;93.00;;;;;;5084274;28;20020;-74
2023/03/05 03:36:38;;;;;;;16.20;6.57;;;6.50;93.00;;;;;;5082301;28;20137;-74
2023/03/05 03:39:04;;;;;;;19.48;5.38;;;6.50;93.00;;;;;;5076841;28;20062;-73
2023/03/05 03:41:31;;;;;;;17.35;5.03;;;6.40;93.00;;;;;;5080446;28;20033;-74
2023/03/05 03:43:57;;;;;;;17.02;4.97;;;6.40;93.10;;;;;;5081058;28;20020;-73
2023/03/05 03:46:22;;;;;;;19.83;5.20;;;6.40;93.10;;;;;;5069769;28;20020;-75
2023/03/05 03:48:51;;;;;;;15.55;3.63;;;6.40;93.20;;;;;;5078918;28;20094;-74
2023/03/05 03:51:17;;;;;;;14.85;4.53;;;6.40;93.20;;;;;;5076559;28;20096;-75
2023/03/05 03:53:43;;;;;;;16.92;4.45;;;6.40;93.20;;;;;;5080040;28;20025;-74
2023/03/05 03:56:08;;;;;;;13.52;3.80;;;6.40;93.20;;;;;;5073894;28;20032;-75
2023/03/05 03:58:34;;;;;;;14.65;4.43;;;6.40;93.20;;;;;;5071332;28;20020;-74
2023/03/05 04:01:00;;;;;;;19.40;5.72;;;6.40;93.10;;;;;;5085595;28;20103;-75
2023/03/05 04:03:26;;;;;;;11.93;3.97;;;6.40;93.20;;;;;;5071053;28;20031;-74
2023/03/05 04:05:51;;;;;;;14.00;4.28;;;6.50;93.20;;;;;;5074454;28;20020;-74
2023/03/05 04:08:17;;;;;;;14.82;4.05;;;6.40;93.10;;;;;;5070619;28;20083;-74
2023/03/05 04:10:42;;;;;;;22.25;5.43;;;6.50;93.10;;;;;;5076856;28;20041;-74
2023/03/05 04:13:08;;;;;;;11.30;4.40;;;6.50;93.00;;;;;;5081409;28;20029;-74
2023/03/05 04:15:35;;;;;;;13.77;3.97;;;6.50;93.10;;;;;;5077475;28;20028;-74
2023/03/05 04:18:00;;;;;;;17.90;4.65;;;6.40;93.00;;;;;;5077586;28;20490;-75
2023/03/05 04:20:26;;;;;;;11.52;4.00;;;6.50;93.10;;;;;;5076380;28;20028;-75
2023/03/05 04:22:52;;;;;;;15.57;4.18;;;6.40;93.10;;;;;;5074856;28;20493;-76
2023/03/05 04:25:17;;;;;;;12.35;3.95;;;6.30;93.10;;;;;;5079851;28;20024;-74
2023/03/05 04:27:43;;;;;;;16.25;4.90;;;6.30;93.40;;;;;;5072989;28;20024;-74
2023/03/05 04:30:13;;;;;;;18.25;3.92;;;6.30;93.40;;;;;;5077726;28;20544;-75
2023/03/05 04:32:39;;;;;;;12.20;4.22;;;6.20;93.40;;;;;;5075483;28;20020;-74
2023/03/05 04:35:05;;;;;;;8.25;3.22;;;6.20;93.40;;;;;;5081099;28;20498;-73
2023/03/05 04:37:30;;;;;;;12.95;3.30;;;6.20;93.50;;;;;;5074300;28;20132;-75
2023/03/05 04:39:56;;;;;;;15.75;4.03;;;6.20;93.60;;;;;;5082880;28;20024;-74
2023/03/05 04:42:21;;;;;;;16.80;3.97;;;6.20;93.70;;;;;;5080567;28;20063;-73
2023/03/05 04:44:48;;;;;;;12.23;4.22;;;6.20;93.70;;;;;;5080879;28;20035;-74
2023/03/05 04:47:14;;;;;;;16.15;3.88;;;6.20;93.70;;;;;;5081324;28;20044;-74
2023/03/05 04:49:40;;;;;;;10.60;3.53;;;6.20;93.60;;;;;;5077478;28;20113;-73
2023/03/05 04:52:06;;;;;;;18.80;4.55;;;6.20;93.60;;;;;;5082740;28;20024;-75
2023/03/05 04:54:32;;;;;;;14.98;3.70;;;6.30;93.60;;;;;;5079959;28;20028;-75
2023/03/05 04:56:59;;;;;;;13.55;3.53;;;6.30;93.60;;;;;;5083641;28;20037;-73
2023/03/05 04:59:24;;;;;;;9.95;3.55;;;6.20;93.60;;;;;;5085167;28;20081;-74
2023/03/05 05:01:50;;;;;;;9.60;3.20;;;6.20;93.60;;;;;;5080951;28;20032;-74
2023/03/05 05:04:17;;;;;;;13.88;4.35;;;6.20;93.70;;;;;;5075307;28;20043;-73
2023/03/05 05:06:42;;;;;;;15.23;4.65;;;6.10;93.80;;;;;;5077791;28;20056;-74
2023/03/05 05:09:08;;;;;;;18.38;5.32;;;6.10;93.80;;;;;;5074489;28;20147;-74
2023/03/05 05:11:33;;;;;;;20.48;4.75;;;6.10;93.90;;;;;;5071293;28;20475;-75
2023/03/05 05:13:59;;;;;;;20.15;4.85;;;6.10;93.90;;;;;;5084401;28;20032;-74
2023/03/05 05:16:24;;;;;;;15.32;4.05;;;6.10;93.90;;;;;;5084372;28;20021;-74
2023/03/05 05:18:50;;;;;;;14.65;4.20;;;6.10;94.00;;;;;;5070269;28;20025;-74
2023/03/05 05:21:17;;;;;;;16.05;4.65;;;6.10;94.00;;;;;;5073363;28;20089;-74
2023/03/05 05:23:43;;;;;;;12.95;3.50;;;6.10;94.10;;;;;;5087778;28;20758;-75
2023/03/05 05:26:13;;;;;;;18.55;4.50;;;6.10;94.30;;;;;;5072870;28;20016;-74
2023/03/05 05:28:42;;;;;;;15.57;4.60;;;6.10;94.30;;;;;;5085831;28;20036;-75
2023/03/05 05:31:12;;;;;;;16.75;3.65;;;6.10;94.40;;;;;;5085663;28;20218;-74
2023/03/05 05:33:38;;;;;;;14.40;4.13;;;6.10;94.40;;;;;;5081045;28;20020;-74
2023/03/05 05:36:06;;;;;;;14.18;3.50;;;6.10;94.40;;;;;;5071086;28;20031;-74
2023/03/05 05:38:33;;;;;;;20.33;6.07;;;6.20;94.50;;;;;;5074635;28;20021;-73
2023/03/05 05:41:11;;;;;;;10.27;3.58;;;6.20;94.80;;;;;;5078653;28;20108;-74
2023/03/05 05:43:36;;;;;;;15.70;4.38;;;6.20;94.50;;;;;;5083526;28;20127;-75
2023/03/05 05:46:05;;;;;;;35.28;10.90;;;6.20;94.50;;;;;;5079698;28;20116;-74
2023/03/05 05:48:32;;;;;;;11.68;4.88;;;6.10;94.50;;;;;;5077464;28;20044;-75
2023/03/05 05:50:58;;;;;;;13.13;3.22;;;6.20;94.50;;;;;;5077270;28;20044;-73
2023/03/05 05:53:24;;;;;;;12.23;3.42;;;6.10;94.50;;;;;;5078418;28;20031;-73
2023/03/05 05:55:51;;;;;;;13.63;3.30;;;6.20;94.60;;;;;;5076394;28;20025;-74
2023/03/05 05:58:17;;;;;;;11.52;4.22;;;6.10;94.60;;;;;;5073087;28;20017;-74
2023/03/05 06:00:42;;;;;;;19.27;5.78;;;6.10;94.60;;;;;;5078033;28;20036;-75
2023/03/05 06:03:08;;;;;;;16.17;5.65;;;6.10;94.70;;;;;;5074982;28;20025;-75
2023/03/05 06:05:34;;;;;;;11.55;3.83;;;6.10;94.70;;;;;;5075438;28;20024;-74
2023/03/05 06:08:00;;;;;;;13.32;3.97;;;6.10;94.70;;;;;;5085285;28;20052;-73
2023/03/05 06:10:25;;;;;;;12.70;3.38;;;6.10;94.70;;;;;;5089899;28;20040;-74
2023/03/05 06:12:51;;;;;;;10.25;3.25;;;6.00;94.70;;;;;;5076701;28;20295;-74
2023/03/05 06:15:18;;;;;;;11.63;2.90;;;6.00;94.70;;;;;;5079510;28;20028;-74
2023/03/05 06:17:46;;;;;;;12.63;3.35;;;6.00;94.80;;;;;;5076516;28;20032;-76
2023/03/05 06:20:12;;;;;;;10.95;3.30;;;6.00;94.80;;;;;;5084406;28;20032;-74
2023/03/05 06:22:38;;;;;;;7.75;2.63;;;6.00;94.80;;;;;;5075004;28;20017;-74
2023/03/05 06:25:06;;;;;;;12.18;3.70;;;6.00;94.80;;;;;;5080648;28;20024;-74
2023/03/05 06:27:34;;;;;;;10.98;2.75;;;6.00;94.80;;;;;;5073603;28;20037;-73
2023/03/05 06:30:01;;;;;;;13.20;2.72;;;6.10;94.90;;;;;;5085808;28;20440;-73
2023/03/05 06:32:27;;;;;;;8.93;3.03;;;6.10;94.80;;;;;;5075901;28;20480;-73
2023/03/05 06:34:53;;;;;;;10.00;3.03;;;6.00;94.80;;;;;;5089712;28;20020;-73
2023/03/05 06:37:19;;;;;;;14.48;3.22;;;6.00;94.90;;;;;;5086195;28;20447;-74
2023/03/05 06:39:44;;;;;;;11.93;2.78;;;6.00;94.90;;;;;;5080369;28;20020;-73
2023/03/05 06:42:10;;;;;;;10.88;3.63;;;6.00;94.90;;;;;;5072979;28;20067;-73
2023/03/05 06:44:40;;;;;;;7.35;2.40;;;6.00;95.00;;;;;;5075033;28;20103;-73
2023/03/05 06:47:11;;;;;;;12.02;3.50;;;6.00;95.00;;;;;;5073576;28;20483;-72
2023/03/05 06:49:37;;;;;;;12.90;3.70;;;6.00;95.00;;;;;;5074753;28;20033;-74
2023/03/05 06:52:04;;;;;;;8.35;3.15;;;6.00;95.00;;;;;;5077614;28;20480;-73
2023/03/05 06:54:30;;;;;;;10.75;2.92;;;6.00;95.00;;;;;;5081357;28;20078;-72
2023/03/05 06:56:56;;;;;;;13.55;3.42;;;6.00;95.10;;;;;;5084120;28;20028;-74
2023/03/05 06:59:22;;;;;;;9.63;3.17;;;6.00;95.10;;;;;;5075328;28;20028;-74
2023/03/05 07:01:48;;;;;;;13.80;3.58;;;6.00;95.10;;;;;;5081292;28;20059;-73
2023/03/05 07:04:14;;;;;;;11.77;3.60;;;6.00;95.30;;;;;;5081446;28;20056;-73
2023/03/05 07:06:44;;;;;;;10.77;3.13;;;5.90;95.40;;;;;;5074470;28;20020;-74
2023/03/05 07:09:13;;;;;;;12.82;3.47;;;5.90;95.50;;;;;;5081586;28;20052;-73
2023/03/05 07:11:39;;;;;;;8.60;3.38;;;5.90;95.50;;;;;;5076419;28;20039;-73
2023/03/05 07:14:06;;;;;;;8.98;3.40;;;5.90;95.50;;;;;;5069885;28;20076;-73
2023/03/05 07:16:33;;;;;;;10.35;2.88;;;6.00;95.60;;;;;;5075861;28;20106;-73
2023/03/05 07:19:03;;;;;;;12.55;3.15;;;6.00;95.60;;;;;;5072959;28;20029;-74
2023/03/05 07:21:30;;;;;;;8.82;3.10;;;6.10;95.60;;;;;;5076942;28;20029;-74
2023/03/05 07:23:59;;;;;;;7.75;3.35;;;6.10;95.60;;;;;;5078319;28;20110;-74
2023/03/05 07:26:25;;;;;;;10.18;3.65;;;6.20;95.60;;;;;;5074659;28;20012;-73
2023/03/05 07:28:51;;;;;;;10.15;3.00;;;6.20;95.40;;;;;;5075645;28;20028;-74
2023/03/05 07:31:20;;;;;;;8.50;2.97;;;6.30;95.40;;;;;;5081895;28;20017;-73
2023/03/05 07:33:48;;;;;;;8.95;2.88;;;6.30;95.30;;;;;;5076348;28;20023;-74
2023/03/05 07:36:15;;;;;;;8.48;2.90;;;6.40;95.30;;;;;;5082101;28;20027;-73
2023/03/05 07:38:41;;;;;;;7.50;3.00;;;6.50;95.30;;;;;;5078205;28;20020;-73
2023/03/05 07:41:12;;;;;;;10.82;3.08;;;6.50;95.00;;;;;;5081469;28;20100;-73
2023/03/05 07:43:39;;;;;;;7.82;2.90;;;6.50;94.90;;;;;;5073596;28;20193;-74
2023/03/05 07:46:10;;;;;;;7.95;2.55;;;6.50;94.80;;;;;;5083538;28;20025;-74
2023/03/05 07:48:36;;;;;;;15.82;8.68;;;6.60;94.80;;;;;;5078326;28;20037;-73
2023/03/05 07:51:07;;;;;;;18.95;16.00;;;6.60;94.80;;;;;;5077465;28;20029;-73
2023/03/05 07:53:33;;;;;;;13.48;3.80;;;6.70;94.70;;;;;;5072831;28;20035;-74
2023/03/05 07:55:59;;;;;;;9.32;3.63;;;6.70;94.60;;;;;;5077169;28;20028;-74
2023/03/05 07:58:24;;;;;;;11.32;3.83;;;6.70;94.50;;;;;;5078617;28;20524;-72
2023/03/05 08:00:50;;;;;;;6.75;2.70;;;6.80;94.30;;;;;;5083379;28;20081;-72
2023/03/05 08:03:16;;;;;;;14.77;7.63;;;6.80;94.10;;;;;;5086313;28;20020;-74
2023/03/05 08:05:42;;;;;;;6.53;2.67;;;6.80;94.20;;;;;;5071996;28;20048;-73
2023/03/05 08:08:08;;;;;;;10.38;2.67;;;7.00;94.30;;;;;;5076822;28;20664;-73
2023/03/05 08:10:35;;;;;;;10.95;3.10;;;7.00;94.00;;;;;;5075651;28;20041;-73
2023/03/05 08:13:00;;;;;;;6.68;2.70;;;7.00;93.90;;;;;;5074367;28;20032;-72
2023/03/05 08:15:26;;;;;;;10.38;3.78;;;7.00;93.90;;;;;;5076180;28;20048;-74
2023/03/05 08:17:52;;;;;;;8.70;2.65;;;7.10;93.70;;;;;;5078518;28;20027;-73
2023/03/05 08:20:18;;;;;;;8.73;3.15;;;7.00;93.50;;;;;;5082390;28;20032;-74
2023/03/05 08:22:44;;;;;;;7.20;4.80;;;7.00;93.60;;;;;;5071776;28;20378;-73
2023/03/05 08:25:11;;;;;;;8.60;3.92;;;7.00;93.60;;;;;;5073701;28;20467;-74
2023/03/05 08:27:39;;;;;;;8.52;3.05;;;7.00;93.70;;;;;;5081266;28;20020;-73
2023/03/05 08:30:06;;;;;;;8.75;4.03;;;7.00;93.60;;;;;;5080377;28;20119;-74
2023/03/05 08:32:31;;;;;;;8.15;3.40;;;7.10;93.70;;;;;;5075039;28;20082;-74
2023/03/05 08:34:57;;;;;;;7.60;3.38;;;7.20;93.80;;;;;;5080613;28;20020;-74
2023/03/05 08:37:23;;;;;;;9.05;3.17;;;7.30;93.70;;;;;;5074979;28;20024;-74
2023/03/05 08:39:49;;;;;;;6.25;3.70;;;7.40;93.50;;;;;;5073169;28;20084;-72
2023/03/05 08:42:14;;;;;;;8.65;3.25;;;7.50;93.20;;;;;;5080749;28;20099;-73
2023/03/05 08:44:40;;;;;;;9.68;3.40;;;7.60;93.10;;;;;;5084903;28;20050;-74
2023/03/05 08:47:06;;;;;;;11.57;4.05;;;7.70;93.00;;;;;;5083689;28;20501;-73
2023/03/05 08:49:33;;;;;;;6.75;3.33;;;7.70;92.50;;;;;;5081948;28;20032;-74
2023/03/05 08:51:58;;;;;;;5.78;2.83;;;7.70;92.20;;;;;;5076515;28;20035;-73
2023/03/05 08:54:24;;;;;;;7.13;2.08;;;7.90;92.20;;;;;;5086974;28;20429;-72
2023/03/05 08:56:49;;;;;;;14.93;6.78;;;7.90;92.00;;;;;;5074149;28;20060;-74
2023/03/05 08:59:15;;;;;;;10.40;4.13;;;7.90;91.90;;;;;;5075729;28;20024;-75
2023/03/05 09:01:41;;;;;;;17.52;4.78;;;8.10;91.70;;;;;;5075097;28;20024;-74
2023/03/05 09:04:08;;;;;;;7.00;2.95;;;8.10;91.50;;;;;;5083822;28;20068;-74
2023/03/05 09:06:38;;;;;;;12.90;7.30;;;8.20;92.00;;;;;;5072540;28;20027;-73
2023/03/05 09:09:03;;;;;;;11.35;4.35;;;8.30;91.50;;;;;;5076106;28;20411;-74
2023/03/05 09:11:29;;;;;;;6.28;2.03;;;8.30;91.20;;;;;;5071168;28;20465;-73
2023/03/05 09:13:55;;;;;;;4.95;1.60;;;8.30;91.00;;;;;;5078464;28;20467;-74
2023/03/05 09:16:20;;;;;;;20.27;11.07;;;8.40;90.70;;;;;;5074082;28;20024;-73
2023/03/05 09:18:46;;;;;;;7.20;4.32;;;8.30;90.40;;;;;;5083664;28;20108;-73
2023/03/05 09:21:16;;;;;;;4.00;2.03;;;8.30;90.40;;;;;;5086462;28;20417;-73
2023/03/05 09:23:43;;;;;;;15.60;10.75;;;8.20;90.30;;;;;;5081448;28;20050;-74
2023/03/05 09:26:11;;;;;;;5.07;2.70;;;8.30;90.30;;;;;;5078582;28;20020;-74
2023/03/05 09:28:37;;;;;;;17.23;8.95;;;8.30;90.30;;;;;;5075537;28;20404;-74
2023/03/05 09:31:04;;;;;;;13.13;6.03;;;8.30;90.20;;;;;;5078363;28;20024;-73
2023/03/05 09:33:31;;;;;;;11.55;5.47;;;8.40;90.30;;;;;;5080164;28;20023;-74
2023/03/05 09:35:58;;;;;;;20.20;12.20;;;8.50;90.30;;;;;;5074265;28;20382;-74
2023/03/05 09:38:23;;;;;;;12.95;7.22;;;8.60;90.10;;;;;;5071292;28;20020;-73
2023/03/05 09:41:13;;;;;;;7.30;2.17;;;8.70;90.30;;;;;;5078033;28;20024;-74
2023/03/05 09:43:47;;;;;;;4.82;2.33;;;8.60;89.10;;;;;;5077828;28;20393;-74
2023/03/05 09:46:25;;;;;;;10.73;4.57;;;8.60;89.30;;;;;;5077654;28;20115;-74
2023/03/05 09:49:29;;;;;;;6.43;2.35;;;8.50;89.00;;;;;;5075115;28;20032;-72
2023/03/05 09:52:02;;;;;;;10.02;4.97;;;8.60;89.70;;;;;;5100133;28;20017;-74
2023/03/05 09:54:42;;;;;;;6.45;2.40;;;8.70;89.30;;;;;;5083789;28;20592;-73
2023/03/05 09:57:18;;;;;;;5.05;1.63;;;8.70;88.50;;;;;;5085473;28;20028;-74
2023/03/05 09:59:48;;;;;;;6.20;2.33;;;8.70;87.50;;;;;;5079897;28;20464;-76
2023/03/05 10:02:23;;;;;;;5.07;2.45;;;8.80;86.90;;;;;;5074491;28;20493;-74
2023/03/05 10:04:58;;;;;;;6.72;1.73;;;8.80;86.50;;;;;;5090188;28;20038;-73
2023/03/05 10:07:35;;;;;;;8.70;1.92;;;8.90;86.40;;;;;;5073569;28;20044;-74
2023/03/05 10:10:08;;;;;;;3.92;1.65;;;8.90;86.20;;;;;;5073053;28;20040;-74
2023/03/05 10:12:41;;;;;;;7.53;1.67;;;8.90;86.50;;;;;;5081040;28;20167;-73
2023/03/05 10:15:15;;;;;;;7.45;1.85;;;8.90;85.70;;;;;;5090639;28;20095;-75
2023/03/05 10:18:06;;;;;;;8.13;2.42;;;8.90;85.20;;;;;;5087737;28;20020;-73
2023/03/05 10:20:39;;;;;;;;;;;8.80;85.50;;;;;;5073525;28;20449;-74
2023/03/05 10:23:14;;;;;;;5.25;1.50;;;8.90;86.00;;;;;;5086801;28;19931;-73
2023/03/05 10:25:58;;;;;;;5.97;1.58;;;8.80;86.00;;;;;;5083379;28;20374;-74
2023/03/05 10:28:42;;;;;;;13.35;2.03;;;8.80;85.50;;;;;;5081328;28;20145;-74
2023/03/05 10:31:33;;;;;;;5.07;1.75;;;8.70;85.50;;;;;;5084967;28;20031;-74
2023/03/05 10:34:22;;;;;;;5.93;1.73;;;8.70;85.60;;;;;;5089632;28;20032;-74
2023/03/05 10:37:06;;;;;;;4.20;1.52;;;8.60;85.70;;;;;;5077275;28;20070;-74
2023/03/05 10:39:54;;;;;;;20.90;11.25;;;8.70;86.00;;;;;;5081816;28;20032;-73
2023/03/05 10:43:10;;;;;;;17.75;9.05;;;8.60;85.50;;;;;;5079866;28;20020;-75
2023/03/05 10:45:42;;;;;;;5.90;1.48;;;8.70;85.90;;;;;;5038195;28;20033;-75
2023/03/05 10:48:26;;;;;;;2.53;1.10;;;8.70;84.50;;;;;;5089648;28;20051;-73
2023/03/05 10:51:17;;;;;;;9.10;4.60;;;8.60;84.30;;;;;;5088096;28;20119;-74
2023/03/05 10:53:50;;;;;;;5.22;2.72;;;8.70;85.20;;;;;;5085902;28;20016;-73
2023/03/05 10:56:21;;;;;;;9.73;3.63;;;8.70;84.20;;;;;;5083207;28;20032;-73
2023/03/05 10:58:46;;;;;;;23.63;19.20;;;8.80;84.40;;;;;;5076534;28;20378;-73
2023/03/05 11:01:12;;;;;;;5.07;1.58;;;8.80;84.50;;;;;;5082614;28;20025;-73
2023/03/05 11:03:46;;;;;;;5.05;1.08;;;8.90;84.00;;;;;;5074198;28;20032;-73
2023/03/05 11:06:13;;;;;;;9.73;2.83;;;8.90;84.30;;;;;;5085174;28;20428;-73
2023/03/05 11:08:39;;;;;;;5.43;2.42;;;9.00;84.30;;;;;;5077722;28;20067;-73
2023/03/05 11:11:07;;;;;;;4.38;1.50;;;9.10;83.90;;;;;;5079838;28;20479;-73
2023/03/05 11:13:43;;;;;;;4.53;1.45;;;9.20;82.60;;;;;;5071873;28;20085;-74
2023/03/05 11:16:17;;;;;;;3.55;1.20;;;9.30;80.40;;;;;;5073885;28;20063;-73
2023/03/05 11:18:45;;;;;;;3.67;1.00;;;9.30;80.20;;;;;;5079023;28;20017;-74
2023/03/05 11:21:27;;;;;;;2.80;1.23;;;9.40;79.90;;;;;;5079829;28;20062;-73
2023/03/05 11:24:14;;;;;;;5.85;2.08;;;9.70;79.80;;;;;;5082702;28;20527;-73
2023/03/05 11:26:54;;;;;;;5.55;1.65;;;9.80;78.60;;;;;;5077677;28;20028;-73
2023/03/05 11:29:22;;;;;;;6.53;1.48;;;10.00;79.10;;;;;;5077995;28;20024;-72
2023/03/05 11:31:49;;;;;;;5.85;1.70;;;10.10;78.60;;;;;;5074273;28;20402;-73
2023/03/05 11:34:17;;;;;;;5.28;1.40;;;10.10;77.30;;;;;;5073545;28;20032;-74
2023/03/05 11:36:52;;;;;;;3.58;1.17;;;10.10;77.50;;;;;;5081664;28;20049;-76
2023/03/05 11:39:21;;;;;;;4.63;1.48;;;10.10;79.00;;;;;;5077762;28;20024;-73
2023/03/05 11:42:03;;;;;;;4.47;2.20;;;10.20;77.20;;;;;;5076126;28;20017;-73
2023/03/05 11:44:49;;;;;;;19.80;11.50;;;10.30;76.90;;;;;;5076386;28;20115;-73
2023/03/05 11:47:23;;;;;;;5.57;1.80;;;10.40;77.10;;;;;;5081971;28;20020;-74
2023/03/05 11:49:54;;;;;;;7.30;1.70;;;10.40;75.40;;;;;;5074754;28;20021;-73
2023/03/05 11:52:31;;;;;;;3.97;1.00;;;10.40;75.00;;;;;;5078202;28;20020;-74
2023/03/05 11:55:05;;;;;;;3.40;1.27;;;10.40;74.80;;;;;;5082079;28;20016;-74
2023/03/05 11:57:40;;;;;;;4.38;1.40;;;10.40;75.40;;;;;;5088863;28;20506;-72
2023/03/05 12:00:11;;;;;;;2.72;1.10;;;10.40;74.80;;;;;;5082883;28;20035;-73
2023/03/05 12:02:37;;;;;;;3.85;1.40;;;10.30;72.80;;;;;;5074603;28;20032;-74
2023/03/05 12:05:06;;;;;;;5.38;1.17;;;10.10;73.70;;;;;;5076793;28;20384;-74
2023/03/05 12:07:41;;;;;;;4.22;1.30;;;10.00;73.20;;;;;;5078512;28;20080;-73
2023/03/05 12:10:15;;;;;;;4.70;1.17;;;9.90;73.10;;;;;;5075137;28;20028;-74
2023/03/05 12:13:02;;;;;;;3.65;1.52;;;9.80;73.70;;;;;;5078148;28;20024;-73
2023/03/05 12:15:44;;;;;;;5.03;1.92;;;9.70;74.20;;;;;;5082689;28;20024;-73
2023/03/05 12:18:40;;;;;;;5.30;1.90;;;9.70;74.80;;;;;;5079099;28;20027;-73
2023/03/05 12:21:35;;;;;;;2.78;1.50;;;9.70;75.50;;;;;;5077717;28;20071;-75
2023/03/05 12:24:22;;;;;;;4.70;1.30;;;9.80;75.20;;;;;;5073978;28;20166;-74
2023/03/05 12:27:10;;;;;;;5.18;1.15;;;9.60;74.80;;;;;;5077971;28;20363;-73
2023/03/05 12:29:48;;;;;;;1.73;0.90;;;9.60;76.10;;;;;;5072553;28;20841;-73
2023/03/05 12:32:27;;;;;;;3.50;1.30;;;9.70;79.10;;;;;;5077188;28;20379;-72
2023/03/05 12:35:24;;;;;;;3.90;1.40;;;9.70;77.60;;;;;;5075073;28;20055;-73
2023/03/05 12:37:49;;;;;;;6.65;1.77;;;9.80;76.80;;;;;;5045220;28;20116;-73
2023/03/05 12:40:18;;;;;;;4.63;1.33;;;9.80;76.20;;;;;;5077273;28;20028;-73
2023/03/05 12:42:51;;;;;;;4.15;1.70;;;9.80;76.50;;;;;;5080987;28;20028;-72
2023/03/05 12:45:18;;;;;;;6.40;2.95;;;9.80;75.90;;;;;;5067978;28;20020;-72
2023/03/05 12:47:45;;;;;;;4.78;1.23;;;9.80;76.50;;;;;;5069953;28;20070;-74
2023/03/05 12:50:26;;;;;;;4.07;1.50;;;9.80;75.10;;;;;;5073298;28;20089;-73
2023/03/05 12:52:53;;;;;;;2.38;1.08;;;9.80;74.00;;;;;;5073588;28;20024;-72
2023/03/05 12:55:23;;;;;;;3.83;1.15;;;9.70;75.70;;;;;;5074512;28;20179;-73
2023/03/05 12:58:06;;;;;;;4.60;1.23;;;9.60;75.50;;;;;;5071323;28;20025;-72
2023/03/05 13:01:01;;;;;;;4.30;1.25;;;9.70;76.70;;;;;;5075630;28;20321;-73